sensor_id;sensor_type;location;lat;lon;timestamp;temperature;humidity
10336;DHT22;5213;53.548;9.930;2023-07-13T00:02:00;15.60;99.90
10336;DHT22;5213;53.548;9.930;2023-07-13T00:04:26;15.60;99.90
10336;DHT22;5213;53.548;9.930;2023-07-13T00:06:52;15.60;99.90
10336;DHT22;5213;53.548;9.930;2023-07-13T00:09:18;15.50;99.90
10336;DHT22;5213;53.548;9.930;2023-07-13T00:11:45;15.50;99.90
10336;DHT22;5213;53.548;9.930;2023-07-13T00:14:14;15.40;99.90
10336;DHT22;5213;53.548;9.930;2023-07-13T00:16:41;15.40;99.90
10336;DHT22;5213;53.548;9.930;2023-07-13T00:19:10;15.30;99.90
10336;DHT22;5213;53.548;9.930;2023-07-13T00:21:36;15.30;99.90
10336;DHT22;5213;53.548;9.930;2023-07-13T00:24:02;15.20;99.90
10336;DHT22;5213;53.548;9.930;2023-07-13T00:26:28;15.20;99.90
10336;DHT22;5213;53.548;9.930;2023-07-13T00:28:54;15.10;99.90
10336;DHT22;5213;53.548;9.930;2023-07-13T00:31:19;15.20;1.00
10336;DHT22;5213;53.548;9.930;2023-07-13T00:33:45;15.10;1.00
10336;DHT22;5213;53.548;9.930;2023-07-13T00:36:11;15.10;1.00
10336;DHT22;5213;53.548;9.930;2023-07-13T00:38:37;15.10;1.00
10336;DHT22;5213;53.548;9.930;2023-07-13T00:41:03;15.20;1.00
10336;DHT22;5213;53.548;9.930;2023-07-13T00:43:29;15.10;1.00
10336;DHT22;5213;53.548;9.930;2023-07-13T00:48:25;15.10;1.00
10336;DHT22;5213;53.548;9.930;2023-07-13T00:50:54;15.20;1.00
10336;DHT22;5213;53.548;9.930;2023-07-13T00:53:20;15.10;1.00
10336;DHT22;5213;53.548;9.930;2023-07-13T00:55:48;15.20;1.00
10336;DHT22;5213;53.548;9.930;2023-07-13T00:58:15;15.10;1.00
10336;DHT22;5213;53.548;9.930;2023-07-13T01:00:41;15.10;1.00
10336;DHT22;5213;53.548;9.930;2023-07-13T01:03:07;15.10;1.00
10336;DHT22;5213;53.548;9.930;2023-07-13T01:05:34;15.10;1.00
10336;DHT22;5213;53.548;9.930;2023-07-13T01:08:01;15.00;1.00
10336;DHT22;5213;53.548;9.930;2023-07-13T01:10:40;15.00;1.00
10336;DHT22;5213;53.548;9.930;2023-07-13T01:13:10;15.00;1.00
10336;DHT22;5213;53.548;9.930;2023-07-13T01:15:37;15.00;1.00
10336;DHT22;5213;53.548;9.930;2023-07-13T01:18:04;15.00;1.00
10336;DHT22;5213;53.548;9.930;2023-07-13T01:20:30;15.00;1.00
10336;DHT22;5213;53.548;9.930;2023-07-13T01:22:56;14.90;1.00
10336;DHT22;5213;53.548;9.930;2023-07-13T01:25:22;14.80;1.00
10336;DHT22;5213;53.548;9.930;2023-07-13T01:27:47;14.80;1.00
10336;DHT22;5213;53.548;9.930;2023-07-13T01:30:13;14.80;1.00
10336;DHT22;5213;53.548;9.930;2023-07-13T01:32:39;14.80;1.00
10336;DHT22;5213;53.548;9.930;2023-07-13T01:35:07;14.80;1.00
10336;DHT22;5213;53.548;9.930;2023-07-13T01:37:33;14.80;1.00
10336;DHT22;5213;53.548;9.930;2023-07-13T01:43:05;14.70;1.00
10336;DHT22;5213;53.548;9.930;2023-07-13T01:45:31;14.70;1.00
10336;DHT22;5213;53.548;9.930;2023-07-13T01:47:56;14.70;1.00
10336;DHT22;5213;53.548;9.930;2023-07-13T01:50:23;14.60;1.00
10336;DHT22;5213;53.548;9.930;2023-07-13T01:52:49;14.60;1.00
10336;DHT22;5213;53.548;9.930;2023-07-13T01:55:14;14.60;1.00
10336;DHT22;5213;53.548;9.930;2023-07-13T01:57:40;14.60;1.00
10336;DHT22;5213;53.548;9.930;2023-07-13T02:00:08;14.60;1.00
10336;DHT22;5213;53.548;9.930;2023-07-13T02:02:34;14.50;1.00
10336;DHT22;5213;53.548;9.930;2023-07-13T02:05:00;14.50;1.00
10336;DHT22;5213;53.548;9.930;2023-07-13T02:07:25;14.40;1.00
10336;DHT22;5213;53.548;9.930;2023-07-13T02:09:51;14.40;1.00
10336;DHT22;5213;53.548;9.930;2023-07-13T02:12:16;14.40;1.00
10336;DHT22;5213;53.548;9.930;2023-07-13T02:14:42;14.40;1.00
10336;DHT22;5213;53.548;9.930;2023-07-13T02:17:09;14.40;1.00
10336;DHT22;5213;53.548;9.930;2023-07-13T02:19:35;14.50;1.00
10336;DHT22;5213;53.548;9.930;2023-07-13T02:22:01;14.50;1.00
10336;DHT22;5213;53.548;9.930;2023-07-13T02:24:27;14.40;1.00
10336;DHT22;5213;53.548;9.930;2023-07-13T02:26:53;14.50;1.00
10336;DHT22;5213;53.548;9.930;2023-07-13T02:29:18;14.60;1.00
10336;DHT22;5213;53.548;9.930;2023-07-13T02:31:44;14.60;1.00
10336;DHT22;5213;53.548;9.930;2023-07-13T02:34:10;14.50;1.00
10336;DHT22;5213;53.548;9.930;2023-07-13T02:36:35;14.50;1.00
10336;DHT22;5213;53.548;9.930;2023-07-13T02:39:03;14.60;1.00
10336;DHT22;5213;53.548;9.930;2023-07-13T02:41:29;14.50;1.00
10336;DHT22;5213;53.548;9.930;2023-07-13T02:43:55;14.50;1.00
10336;DHT22;5213;53.548;9.930;2023-07-13T02:46:29;14.40;1.00
10336;DHT22;5213;53.548;9.930;2023-07-13T02:48:54;14.40;1.00
10336;DHT22;5213;53.548;9.930;2023-07-13T02:51:20;14.40;1.00
10336;DHT22;5213;53.548;9.930;2023-07-13T02:53:46;14.50;1.00
10336;DHT22;5213;53.548;9.930;2023-07-13T02:56:12;14.50;1.00
10336;DHT22;5213;53.548;9.930;2023-07-13T02:58:37;14.40;1.00
10336;DHT22;5213;53.548;9.930;2023-07-13T03:01:08;14.40;1.00
10336;DHT22;5213;53.548;9.930;2023-07-13T03:03:35;14.50;1.00
10336;DHT22;5213;53.548;9.930;2023-07-13T03:06:02;14.40;1.00
10336;DHT22;5213;53.548;9.930;2023-07-13T03:08:29;14.40;1.00
10336;DHT22;5213;53.548;9.930;2023-07-13T03:11:06;14.40;1.00
10336;DHT22;5213;53.548;9.930;2023-07-13T03:13:32;14.40;1.00
10336;DHT22;5213;53.548;9.930;2023-07-13T03:15:58;14.40;1.00
10336;DHT22;5213;53.548;9.930;2023-07-13T03:18:25;14.40;1.00
10336;DHT22;5213;53.548;9.930;2023-07-13T03:20:51;14.40;1.00
10336;DHT22;5213;53.548;9.930;2023-07-13T03:23:18;14.40;1.00
10336;DHT22;5213;53.548;9.930;2023-07-13T03:25:44;14.40;1.00
10336;DHT22;5213;53.548;9.930;2023-07-13T03:28:11;14.40;1.00
10336;DHT22;5213;53.548;9.930;2023-07-13T03:30:37;14.40;1.00
10336;DHT22;5213;53.548;9.930;2023-07-13T03:33:02;14.40;1.00
10336;DHT22;5213;53.548;9.930;2023-07-13T03:35:28;14.50;1.00
10336;DHT22;5213;53.548;9.930;2023-07-13T03:37:54;14.50;1.00
10336;DHT22;5213;53.548;9.930;2023-07-13T03:40:20;14.50;1.00
10336;DHT22;5213;53.548;9.930;2023-07-13T03:42:46;14.50;1.00
10336;DHT22;5213;53.548;9.930;2023-07-13T03:45:12;14.50;1.00
10336;DHT22;5213;53.548;9.930;2023-07-13T03:47:37;14.60;1.00
10336;DHT22;5213;53.548;9.930;2023-07-13T03:50:03;14.60;1.00
10336;DHT22;5213;53.548;9.930;2023-07-13T03:52:29;14.70;1.00
10336;DHT22;5213;53.548;9.930;2023-07-13T03:54:55;14.80;1.00
10336;DHT22;5213;53.548;9.930;2023-07-13T03:57:20;14.80;1.00
10336;DHT22;5213;53.548;9.930;2023-07-13T03:59:46;14.90;1.00
10336;DHT22;5213;53.548;9.930;2023-07-13T04:02:12;15.00;1.00
10336;DHT22;5213;53.548;9.930;2023-07-13T04:04:37;15.10;1.00
10336;DHT22;5213;53.548;9.930;2023-07-13T04:07:06;15.20;1.00
10336;DHT22;5213;53.548;9.930;2023-07-13T04:09:33;15.20;1.00
10336;DHT22;5213;53.548;9.930;2023-07-13T04:11:59;15.30;1.00
10336;DHT22;5213;53.548;9.930;2023-07-13T04:14:25;15.30;1.00
10336;DHT22;5213;53.548;9.930;2023-07-13T04:16:51;15.40;99.90
10336;DHT22;5213;53.548;9.930;2023-07-13T04:19:17;15.40;99.90
10336;DHT22;5213;53.548;9.930;2023-07-13T04:21:42;15.40;99.90
10336;DHT22;5213;53.548;9.930;2023-07-13T04:24:08;15.50;99.90
10336;DHT22;5213;53.548;9.930;2023-07-13T04:26:34;15.60;99.90
10336;DHT22;5213;53.548;9.930;2023-07-13T04:29:01;15.90;99.90
10336;DHT22;5213;53.548;9.930;2023-07-13T04:31:29;16.50;99.90
10336;DHT22;5213;53.548;9.930;2023-07-13T04:33:55;17.00;99.90
10336;DHT22;5213;53.548;9.930;2023-07-13T04:36:21;17.40;99.90
10336;DHT22;5213;53.548;9.930;2023-07-13T04:38:46;17.70;99.90
10336;DHT22;5213;53.548;9.930;2023-07-13T04:41:15;17.90;99.90
10336;DHT22;5213;53.548;9.930;2023-07-13T04:43:41;18.00;99.90
10336;DHT22;5213;53.548;9.930;2023-07-13T04:46:09;18.00;99.90
10336;DHT22;5213;53.548;9.930;2023-07-13T04:48:36;17.90;85.10
10336;DHT22;5213;53.548;9.930;2023-07-13T04:51:02;17.80;66.30
10336;DHT22;5213;53.548;9.930;2023-07-13T04:53:28;17.80;43.70
10336;DHT22;5213;53.548;9.930;2023-07-13T04:55:54;17.80;28.00
10336;DHT22;5213;53.548;9.930;2023-07-13T04:58:20;17.90;13.60
10336;DHT22;5213;53.548;9.930;2023-07-13T05:00:47;17.80;1.00
10336;DHT22;5213;53.548;9.930;2023-07-13T05:03:12;17.70;1.00
10336;DHT22;5213;53.548;9.930;2023-07-13T05:05:38;17.80;1.00
10336;DHT22;5213;53.548;9.930;2023-07-13T05:08:04;17.90;1.00
10336;DHT22;5213;53.548;9.930;2023-07-13T05:10:29;17.90;1.00
10336;DHT22;5213;53.548;9.930;2023-07-13T05:12:55;17.80;1.00
10336;DHT22;5213;53.548;9.930;2023-07-13T05:15:22;17.90;1.00
10336;DHT22;5213;53.548;9.930;2023-07-13T05:17:48;18.00;1.00
10336;DHT22;5213;53.548;9.930;2023-07-13T05:20:14;18.00;1.00
10336;DHT22;5213;53.548;9.930;2023-07-13T05:22:41;18.10;1.00
10336;DHT22;5213;53.548;9.930;2023-07-13T05:25:07;18.10;1.00
10336;DHT22;5213;53.548;9.930;2023-07-13T05:27:34;18.20;1.00
10336;DHT22;5213;53.548;9.930;2023-07-13T05:30:00;18.00;1.00
10336;DHT22;5213;53.548;9.930;2023-07-13T05:32:26;17.80;1.00
10336;DHT22;5213;53.548;9.930;2023-07-13T05:34:51;17.60;1.00
10336;DHT22;5213;53.548;9.930;2023-07-13T05:37:17;17.40;1.00
10336;DHT22;5213;53.548;9.930;2023-07-13T05:39:43;17.30;1.00
10336;DHT22;5213;53.548;9.930;2023-07-13T05:42:08;17.30;1.00
10336;DHT22;5213;53.548;9.930;2023-07-13T05:44:34;17.30;1.00
10336;DHT22;5213;53.548;9.930;2023-07-13T05:47:00;17.20;1.00
10336;DHT22;5213;53.548;9.930;2023-07-13T05:49:25;17.10;1.00
10336;DHT22;5213;53.548;9.930;2023-07-13T05:51:51;17.10;1.00
10336;DHT22;5213;53.548;9.930;2023-07-13T05:54:16;17.10;1.00
10336;DHT22;5213;53.548;9.930;2023-07-13T05:56:42;17.20;1.00
10336;DHT22;5213;53.548;9.930;2023-07-13T05:59:07;17.00;1.00
10336;DHT22;5213;53.548;9.930;2023-07-13T06:01:33;17.00;1.00
10336;DHT22;5213;53.548;9.930;2023-07-13T06:03:59;17.00;1.00
10336;DHT22;5213;53.548;9.930;2023-07-13T06:06:25;17.00;1.00
10336;DHT22;5213;53.548;9.930;2023-07-13T06:08:50;17.00;1.00
10336;DHT22;5213;53.548;9.930;2023-07-13T06:11:22;17.10;1.00
10336;DHT22;5213;53.548;9.930;2023-07-13T06:13:47;17.10;1.00
10336;DHT22;5213;53.548;9.930;2023-07-13T06:16:14;17.20;1.00
10336;DHT22;5213;53.548;9.930;2023-07-13T06:18:40;17.20;1.00
10336;DHT22;5213;53.548;9.930;2023-07-13T06:21:08;17.30;1.00
10336;DHT22;5213;53.548;9.930;2023-07-13T06:23:34;17.30;1.00
10336;DHT22;5213;53.548;9.930;2023-07-13T06:26:00;17.40;1.00
10336;DHT22;5213;53.548;9.930;2023-07-13T06:28:26;17.50;1.00
10336;DHT22;5213;53.548;9.930;2023-07-13T06:30:51;17.60;1.00
10336;DHT22;5213;53.548;9.930;2023-07-13T06:33:17;17.70;1.00
10336;DHT22;5213;53.548;9.930;2023-07-13T06:35:42;17.60;1.00
10336;DHT22;5213;53.548;9.930;2023-07-13T06:38:08;17.70;1.00
10336;DHT22;5213;53.548;9.930;2023-07-13T06:40:34;17.80;1.00
10336;DHT22;5213;53.548;9.930;2023-07-13T06:42:59;17.90;1.00
10336;DHT22;5213;53.548;9.930;2023-07-13T06:45:25;17.90;1.00
10336;DHT22;5213;53.548;9.930;2023-07-13T06:47:51;18.00;1.00
10336;DHT22;5213;53.548;9.930;2023-07-13T06:50:16;18.10;1.00
10336;DHT22;5213;53.548;9.930;2023-07-13T06:52:42;18.20;1.00
10336;DHT22;5213;53.548;9.930;2023-07-13T06:55:08;18.30;1.00
10336;DHT22;5213;53.548;9.930;2023-07-13T06:57:34;18.50;1.00
10336;DHT22;5213;53.548;9.930;2023-07-13T06:59:59;18.40;1.00
10336;DHT22;5213;53.548;9.930;2023-07-13T07:02:25;18.40;1.00
10336;DHT22;5213;53.548;9.930;2023-07-13T07:04:51;18.50;1.00
10336;DHT22;5213;53.548;9.930;2023-07-13T07:07:16;18.70;1.00
10336;DHT22;5213;53.548;9.930;2023-07-13T07:09:42;18.80;1.00
10336;DHT22;5213;53.548;9.930;2023-07-13T07:12:08;18.90;1.00
10336;DHT22;5213;53.548;9.930;2023-07-13T07:14:33;18.90;1.00
10336;DHT22;5213;53.548;9.930;2023-07-13T07:17:00;18.90;1.00
10336;DHT22;5213;53.548;9.930;2023-07-13T07:19:26;18.90;1.00
10336;DHT22;5213;53.548;9.930;2023-07-13T07:21:51;19.00;1.00
10336;DHT22;5213;53.548;9.930;2023-07-13T07:24:17;19.30;1.00
10336;DHT22;5213;53.548;9.930;2023-07-13T07:26:42;19.50;1.00
10336;DHT22;5213;53.548;9.930;2023-07-13T07:29:08;19.30;1.00
10336;DHT22;5213;53.548;9.930;2023-07-13T07:31:33;19.20;1.00
10336;DHT22;5213;53.548;9.930;2023-07-13T07:33:59;19.30;1.00
10336;DHT22;5213;53.548;9.930;2023-07-13T07:36:25;19.50;1.00
10336;DHT22;5213;53.548;9.930;2023-07-13T07:38:51;19.80;1.00
10336;DHT22;5213;53.548;9.930;2023-07-13T07:41:16;20.10;1.00
10336;DHT22;5213;53.548;9.930;2023-07-13T07:43:42;20.20;1.00
10336;DHT22;5213;53.548;9.930;2023-07-13T07:46:07;20.00;1.00
10336;DHT22;5213;53.548;9.930;2023-07-13T07:48:33;19.90;1.00
10336;DHT22;5213;53.548;9.930;2023-07-13T07:50:59;20.20;1.00
10336;DHT22;5213;53.548;9.930;2023-07-13T07:53:24;20.50;1.00
10336;DHT22;5213;53.548;9.930;2023-07-13T07:55:50;20.30;1.00
10336;DHT22;5213;53.548;9.930;2023-07-13T07:58:16;19.70;1.00
10336;DHT22;5213;53.548;9.930;2023-07-13T08:00:42;19.70;1.00
10336;DHT22;5213;53.548;9.930;2023-07-13T08:03:08;19.80;1.00
10336;DHT22;5213;53.548;9.930;2023-07-13T08:05:35;19.90;1.00
10336;DHT22;5213;53.548;9.930;2023-07-13T08:08:02;19.90;1.00
10336;DHT22;5213;53.548;9.930;2023-07-13T08:10:27;20.20;1.00
10336;DHT22;5213;53.548;9.930;2023-07-13T08:12:53;20.70;1.00
10336;DHT22;5213;53.548;9.930;2023-07-13T08:15:19;20.90;1.00
10336;DHT22;5213;53.548;9.930;2023-07-13T08:17:47;21.00;1.00
10336;DHT22;5213;53.548;9.930;2023-07-13T08:20:13;21.20;1.00
10336;DHT22;5213;53.548;9.930;2023-07-13T08:22:39;21.00;1.00
10336;DHT22;5213;53.548;9.930;2023-07-13T08:25:05;21.00;1.00
10336;DHT22;5213;53.548;9.930;2023-07-13T08:27:30;21.30;1.00
10336;DHT22;5213;53.548;9.930;2023-07-13T08:29:56;21.90;1.00
10336;DHT22;5213;53.548;9.930;2023-07-13T08:32:23;22.00;1.00
10336;DHT22;5213;53.548;9.930;2023-07-13T08:34:49;21.70;1.00
10336;DHT22;5213;53.548;9.930;2023-07-13T08:37:16;21.60;1.00
10336;DHT22;5213;53.548;9.930;2023-07-13T08:39:42;21.40;1.00
10336;DHT22;5213;53.548;9.930;2023-07-13T08:47:09;20.90;1.00
10336;DHT22;5213;53.548;9.930;2023-07-13T08:49:36;20.80;1.00
10336;DHT22;5213;53.548;9.930;2023-07-13T08:52:11;20.50;1.00
10336;DHT22;5213;53.548;9.930;2023-07-13T08:54:41;20.20;1.00
10336;DHT22;5213;53.548;9.930;2023-07-13T08:57:17;19.90;1.00
10336;DHT22;5213;53.548;9.930;2023-07-13T08:59:44;20.20;1.00
10336;DHT22;5213;53.548;9.930;2023-07-13T09:02:44;20.30;1.00
10336;DHT22;5213;53.548;9.930;2023-07-13T09:05:23;20.30;1.00
10336;DHT22;5213;53.548;9.930;2023-07-13T09:08:12;20.80;1.00
10336;DHT22;5213;53.548;9.930;2023-07-13T09:10:45;20.80;99.90
10336;DHT22;5213;53.548;9.930;2023-07-13T09:15:47;21.30;99.90
10336;DHT22;5213;53.548;9.930;2023-07-13T09:18:27;21.50;99.90
10336;DHT22;5213;53.548;9.930;2023-07-13T09:21:07;21.40;99.90
10336;DHT22;5213;53.548;9.930;2023-07-13T09:23:35;21.50;99.90
10336;DHT22;5213;53.548;9.930;2023-07-13T09:26:11;21.90;99.90
10336;DHT22;5213;53.548;9.930;2023-07-13T09:28:46;22.10;99.90
10336;DHT22;5213;53.548;9.930;2023-07-13T09:31:26;22.40;99.90
10336;DHT22;5213;53.548;9.930;2023-07-13T09:33:55;22.50;99.90
10336;DHT22;5213;53.548;9.930;2023-07-13T09:36:22;22.30;99.90
10336;DHT22;5213;53.548;9.930;2023-07-13T09:44:09;22.30;99.90
10336;DHT22;5213;53.548;9.930;2023-07-13T09:46:36;22.50;99.90
10336;DHT22;5213;53.548;9.930;2023-07-13T09:49:02;22.60;99.90
10336;DHT22;5213;53.548;9.930;2023-07-13T09:51:28;22.70;99.90
10336;DHT22;5213;53.548;9.930;2023-07-13T09:53:54;22.80;99.90
10336;DHT22;5213;53.548;9.930;2023-07-13T09:56:37;23.10;99.90
10336;DHT22;5213;53.548;9.930;2023-07-13T09:59:03;23.30;99.90
10336;DHT22;5213;53.548;9.930;2023-07-13T10:01:35;23.20;99.90
10336;DHT22;5213;53.548;9.930;2023-07-13T10:04:01;22.60;99.90
10336;DHT22;5213;53.548;9.930;2023-07-13T10:06:27;22.00;99.90
10336;DHT22;5213;53.548;9.930;2023-07-13T10:08:55;21.70;99.90
10336;DHT22;5213;53.548;9.930;2023-07-13T10:11:27;21.90;99.90
10336;DHT22;5213;53.548;9.930;2023-07-13T10:13:59;22.40;99.90
10336;DHT22;5213;53.548;9.930;2023-07-13T10:16:31;22.90;99.90
10336;DHT22;5213;53.548;9.930;2023-07-13T10:19:03;23.20;99.90
10336;DHT22;5213;53.548;9.930;2023-07-13T10:21:43;23.10;99.90
10336;DHT22;5213;53.548;9.930;2023-07-13T10:26:46;22.10;99.90
10336;DHT22;5213;53.548;9.930;2023-07-13T10:29:14;21.80;99.90
10336;DHT22;5213;53.548;9.930;2023-07-13T10:31:41;21.80;99.90
10336;DHT22;5213;53.548;9.930;2023-07-13T10:34:11;22.20;99.90
10336;DHT22;5213;53.548;9.930;2023-07-13T10:36:46;22.50;99.90
10336;DHT22;5213;53.548;9.930;2023-07-13T10:39:20;22.70;99.90
10336;DHT22;5213;53.548;9.930;2023-07-13T10:41:59;22.60;99.90
10336;DHT22;5213;53.548;9.930;2023-07-13T10:44:28;22.60;99.90
10336;DHT22;5213;53.548;9.930;2023-07-13T10:46:57;22.70;99.90
10336;DHT22;5213;53.548;9.930;2023-07-13T10:49:26;23.10;99.90
10336;DHT22;5213;53.548;9.930;2023-07-13T10:51:52;22.90;99.90
10336;DHT22;5213;53.548;9.930;2023-07-13T10:54:19;22.60;99.90
10336;DHT22;5213;53.548;9.930;2023-07-13T10:56:50;22.60;99.90
10336;DHT22;5213;53.548;9.930;2023-07-13T10:59:25;22.70;99.90
10336;DHT22;5213;53.548;9.930;2023-07-13T11:04:21;22.30;99.90
10336;DHT22;5213;53.548;9.930;2023-07-13T11:06:52;22.60;99.90
10336;DHT22;5213;53.548;9.930;2023-07-13T11:12:06;22.90;99.90
10336;DHT22;5213;53.548;9.930;2023-07-13T11:17:34;23.60;99.90
10336;DHT22;5213;53.548;9.930;2023-07-13T11:20:22;23.50;99.90
10336;DHT22;5213;53.548;9.930;2023-07-13T11:30:39;24.30;99.90
10336;DHT22;5213;53.548;9.930;2023-07-13T11:36:03;24.30;99.90
10336;DHT22;5213;53.548;9.930;2023-07-13T11:44:12;23.60;99.90
10336;DHT22;5213;53.548;9.930;2023-07-13T11:46:38;23.00;99.90
10336;DHT22;5213;53.548;9.930;2023-07-13T11:49:06;23.10;99.90
10336;DHT22;5213;53.548;9.930;2023-07-13T11:51:35;23.20;99.90
10336;DHT22;5213;53.548;9.930;2023-07-13T11:54:05;23.20;99.90
10336;DHT22;5213;53.548;9.930;2023-07-13T11:56:33;23.20;99.90
10336;DHT22;5213;53.548;9.930;2023-07-13T11:59:05;23.20;99.90
10336;DHT22;5213;53.548;9.930;2023-07-13T12:01:32;23.20;99.90
10336;DHT22;5213;53.548;9.930;2023-07-13T12:04:01;23.20;99.90
10336;DHT22;5213;53.548;9.930;2023-07-13T12:06:30;23.10;99.90
10336;DHT22;5213;53.548;9.930;2023-07-13T12:09:01;23.00;99.90
10336;DHT22;5213;53.548;9.930;2023-07-13T12:11:28;22.70;99.90
10336;DHT22;5213;53.548;9.930;2023-07-13T12:13:55;22.40;99.90
10336;DHT22;5213;53.548;9.930;2023-07-13T12:16:26;21.90;99.90
10336;DHT22;5213;53.548;9.930;2023-07-13T12:18:53;21.00;99.90
10336;DHT22;5213;53.548;9.930;2023-07-13T12:21:22;19.10;99.90
10336;DHT22;5213;53.548;9.930;2023-07-13T12:23:50;16.60;99.90
10336;DHT22;5213;53.548;9.930;2023-07-13T12:26:17;15.80;99.90
10336;DHT22;5213;53.548;9.930;2023-07-13T12:28:50;15.50;99.90
10336;DHT22;5213;53.548;9.930;2023-07-13T12:31:41;15.60;99.90
10336;DHT22;5213;53.548;9.930;2023-07-13T12:34:13;15.70;99.90
10336;DHT22;5213;53.548;9.930;2023-07-13T12:36:51;16.00;99.90
10336;DHT22;5213;53.548;9.930;2023-07-13T12:42:21;16.30;99.90
10336;DHT22;5213;53.548;9.930;2023-07-13T12:44:49;16.40;99.90
10336;DHT22;5213;53.548;9.930;2023-07-13T12:47:16;16.20;99.90
10336;DHT22;5213;53.548;9.930;2023-07-13T12:49:48;16.50;99.90
10336;DHT22;5213;53.548;9.930;2023-07-13T12:52:21;16.70;99.90
10336;DHT22;5213;53.548;9.930;2023-07-13T12:54:55;16.30;99.90
10336;DHT22;5213;53.548;9.930;2023-07-13T12:57:25;16.40;99.90
10336;DHT22;5213;53.548;9.930;2023-07-13T12:59:53;16.40;99.90
10336;DHT22;5213;53.548;9.930;2023-07-13T13:02:32;16.80;99.90
10336;DHT22;5213;53.548;9.930;2023-07-13T13:04:59;16.40;99.90
10336;DHT22;5213;53.548;9.930;2023-07-13T13:07:25;16.40;99.90
10336;DHT22;5213;53.548;9.930;2023-07-13T13:09:52;16.60;99.90
10336;DHT22;5213;53.548;9.930;2023-07-13T13:12:19;16.50;99.90
10336;DHT22;5213;53.548;9.930;2023-07-13T13:14:45;16.70;99.90
10336;DHT22;5213;53.548;9.930;2023-07-13T13:17:22;17.00;99.90
10336;DHT22;5213;53.548;9.930;2023-07-13T13:19:52;17.00;99.90
10336;DHT22;5213;53.548;9.930;2023-07-13T13:22:20;17.40;99.90
10336;DHT22;5213;53.548;9.930;2023-07-13T13:24:45;17.70;99.90
10336;DHT22;5213;53.548;9.930;2023-07-13T13:27:21;17.50;99.90
10336;DHT22;5213;53.548;9.930;2023-07-13T13:29:49;17.50;99.90
10336;DHT22;5213;53.548;9.930;2023-07-13T13:32:17;17.80;99.90
10336;DHT22;5213;53.548;9.930;2023-07-13T13:34:44;17.40;99.90
10336;DHT22;5213;53.548;9.930;2023-07-13T13:37:19;18.00;99.90
10336;DHT22;5213;53.548;9.930;2023-07-13T13:39:45;18.10;99.90
10336;DHT22;5213;53.548;9.930;2023-07-13T13:42:12;18.40;99.90
10336;DHT22;5213;53.548;9.930;2023-07-13T13:44:38;18.30;99.90
10336;DHT22;5213;53.548;9.930;2023-07-13T13:47:03;18.30;99.90
10336;DHT22;5213;53.548;9.930;2023-07-13T13:49:30;18.20;99.90
10336;DHT22;5213;53.548;9.930;2023-07-13T13:51:56;18.30;99.90
10336;DHT22;5213;53.548;9.930;2023-07-13T13:54:23;18.20;99.90
10336;DHT22;5213;53.548;9.930;2023-07-13T13:56:51;17.90;99.90
10336;DHT22;5213;53.548;9.930;2023-07-13T13:59:17;17.80;99.90
10336;DHT22;5213;53.548;9.930;2023-07-13T14:01:44;17.80;99.90
10336;DHT22;5213;53.548;9.930;2023-07-13T14:04:17;18.10;99.90
10336;DHT22;5213;53.548;9.930;2023-07-13T14:06:44;18.30;99.90
10336;DHT22;5213;53.548;9.930;2023-07-13T14:09:11;18.60;99.90
10336;DHT22;5213;53.548;9.930;2023-07-13T14:11:39;18.90;12.00
10336;DHT22;5213;53.548;9.930;2023-07-13T14:14:16;18.80;1.00
10336;DHT22;5213;53.548;9.930;2023-07-13T14:16:43;18.60;99.90
10336;DHT22;5213;53.548;9.930;2023-07-13T14:19:12;18.50;64.90
10336;DHT22;5213;53.548;9.930;2023-07-13T14:21:39;18.50;1.00
10336;DHT22;5213;53.548;9.930;2023-07-13T14:24:05;18.50;1.00
10336;DHT22;5213;53.548;9.930;2023-07-13T14:26:39;18.90;99.90
10336;DHT22;5213;53.548;9.930;2023-07-13T14:29:12;19.00;99.90
10336;DHT22;5213;53.548;9.930;2023-07-13T14:31:38;19.20;97.60
10336;DHT22;5213;53.548;9.930;2023-07-13T14:34:04;19.10;1.00
10336;DHT22;5213;53.548;9.930;2023-07-13T14:36:32;19.40;1.00
10336;DHT22;5213;53.548;9.930;2023-07-13T14:39:00;19.60;1.00
10336;DHT22;5213;53.548;9.930;2023-07-13T14:41:26;19.90;1.00
10336;DHT22;5213;53.548;9.930;2023-07-13T14:43:52;19.90;1.00
10336;DHT22;5213;53.548;9.930;2023-07-13T14:46:33;19.70;99.90
10336;DHT22;5213;53.548;9.930;2023-07-13T14:49:27;19.60;99.90
10336;DHT22;5213;53.548;9.930;2023-07-13T14:51:56;19.40;99.90
10336;DHT22;5213;53.548;9.930;2023-07-13T14:54:23;19.30;99.90
10336;DHT22;5213;53.548;9.930;2023-07-13T14:56:49;19.00;28.60
10336;DHT22;5213;53.548;9.930;2023-07-13T14:59:16;19.00;2.10
10336;DHT22;5213;53.548;9.930;2023-07-13T15:01:44;18.90;1.00
10336;DHT22;5213;53.548;9.930;2023-07-13T15:04:11;19.20;1.00
10336;DHT22;5213;53.548;9.930;2023-07-13T15:07:00;19.50;1.00
10336;DHT22;5213;53.548;9.930;2023-07-13T15:09:28;19.70;1.00
10336;DHT22;5213;53.548;9.930;2023-07-13T15:11:55;20.20;1.00
10336;DHT22;5213;53.548;9.930;2023-07-13T15:14:22;20.70;1.00
10336;DHT22;5213;53.548;9.930;2023-07-13T15:16:49;21.00;1.00
10336;DHT22;5213;53.548;9.930;2023-07-13T15:19:16;20.80;1.00
10336;DHT22;5213;53.548;9.930;2023-07-13T15:21:42;20.70;99.90
10336;DHT22;5213;53.548;9.930;2023-07-13T15:24:12;20.60;99.90
10336;DHT22;5213;53.548;9.930;2023-07-13T15:26:38;20.60;99.90
10336;DHT22;5213;53.548;9.930;2023-07-13T15:29:05;20.80;99.90
10336;DHT22;5213;53.548;9.930;2023-07-13T15:31:32;20.80;61.10
10336;DHT22;5213;53.548;9.930;2023-07-13T15:33:58;21.00;1.00
10336;DHT22;5213;53.548;9.930;2023-07-13T15:36:25;20.80;1.00
10336;DHT22;5213;53.548;9.930;2023-07-13T15:38:53;21.20;1.00
10336;DHT22;5213;53.548;9.930;2023-07-13T15:41:20;21.50;1.00
10336;DHT22;5213;53.548;9.930;2023-07-13T15:43:48;21.80;1.00
10336;DHT22;5213;53.548;9.930;2023-07-13T15:46:14;21.60;1.00
10336;DHT22;5213;53.548;9.930;2023-07-13T15:48:40;21.50;1.00
10336;DHT22;5213;53.548;9.930;2023-07-13T15:51:12;21.40;1.00
10336;DHT22;5213;53.548;9.930;2023-07-13T15:53:40;21.40;99.90
10336;DHT22;5213;53.548;9.930;2023-07-13T15:58:45;21.30;99.90
10336;DHT22;5213;53.548;9.930;2023-07-13T16:01:12;21.50;99.90
10336;DHT22;5213;53.548;9.930;2023-07-13T16:03:37;21.40;99.90
10336;DHT22;5213;53.548;9.930;2023-07-13T16:06:03;21.50;99.90
10336;DHT22;5213;53.548;9.930;2023-07-13T16:08:32;21.40;99.90
10336;DHT22;5213;53.548;9.930;2023-07-13T16:10:59;21.10;86.90
10336;DHT22;5213;53.548;9.930;2023-07-13T16:13:26;20.70;48.10
10336;DHT22;5213;53.548;9.930;2023-07-13T16:15:52;20.30;9.60
10336;DHT22;5213;53.548;9.930;2023-07-13T16:18:18;20.20;1.00
10336;DHT22;5213;53.548;9.930;2023-07-13T16:20:48;20.10;1.00
10336;DHT22;5213;53.548;9.930;2023-07-13T16:23:15;20.20;1.00
10336;DHT22;5213;53.548;9.930;2023-07-13T16:25:41;20.20;1.00
10336;DHT22;5213;53.548;9.930;2023-07-13T16:28:12;20.10;1.00
10336;DHT22;5213;53.548;9.930;2023-07-13T16:30:39;19.90;1.00
10336;DHT22;5213;53.548;9.930;2023-07-13T16:33:05;20.00;1.00
10336;DHT22;5213;53.548;9.930;2023-07-13T16:35:39;19.80;1.00
10336;DHT22;5213;53.548;9.930;2023-07-13T16:38:16;19.70;1.00
10336;DHT22;5213;53.548;9.930;2023-07-13T16:40:43;19.60;1.00
10336;DHT22;5213;53.548;9.930;2023-07-13T16:43:11;19.70;1.00
10336;DHT22;5213;53.548;9.930;2023-07-13T16:45:39;19.60;1.00
10336;DHT22;5213;53.548;9.930;2023-07-13T16:48:17;19.60;1.00
10336;DHT22;5213;53.548;9.930;2023-07-13T16:50:45;19.40;1.00